sensor_id;sensor_type;location;lat;lon;timestamp;P1;durP1;ratioP1;P2;durP2;ratioP2
27558;SDS011;15002;52.028;5.670;2022-11-24T00:01:21;24.20;;;8.90;;
27558;SDS011;15002;52.028;5.670;2022-11-24T00:03:55;28.40;;;9.65;;
27558;SDS011;15002;52.028;5.670;2022-11-24T00:06:26;34.30;;;9.73;;
27558;SDS011;15002;52.028;5.670;2022-11-24T00:08:53;34.13;;;8.75;;
27558;SDS011;15002;52.028;5.670;2022-11-24T00:11:20;35.35;;;10.50;;
27558;SDS011;15002;52.028;5.670;2022-11-24T00:13:47;39.20;;;10.02;;
27558;SDS011;15002;52.028;5.670;2022-11-24T00:18:52;32.67;;;7.90;;
27558;SDS011;15002;52.028;5.670;2022-11-24T00:21:20;24.20;;;5.20;;
27558;SDS011;15002;52.028;5.670;2022-11-24T00:23:47;17.90;;;4.18;;
27558;SDS011;15002;52.028;5.670;2022-11-24T00:26:17;17.83;;;4.70;;
27558;SDS011;15002;52.028;5.670;2022-11-24T00:28:44;22.52;;;4.82;;
27558;SDS011;15002;52.028;5.670;2022-11-24T00:31:33;17.77;;;5.10;;
27558;SDS011;15002;52.028;5.670;2022-11-24T00:34:02;36.40;;;9.27;;
27558;SDS011;15002;52.028;5.670;2022-11-24T00:36:30;29.65;;;6.53;;
27558;SDS011;15002;52.028;5.670;2022-11-24T00:38:58;30.92;;;5.55;;
27558;SDS011;15002;52.028;5.670;2022-11-24T00:41:26;17.08;;;4.53;;
27558;SDS011;15002;52.028;5.670;2022-11-24T00:43:52;22.63;;;5.70;;
27558;SDS011;15002;52.028;5.670;2022-11-24T00:46:18;19.67;;;4.30;;
27558;SDS011;15002;52.028;5.670;2022-11-24T00:48:45;26.48;;;10.77;;
27558;SDS011;15002;52.028;5.670;2022-11-24T00:51:11;28.95;;;12.27;;
27558;SDS011;15002;52.028;5.670;2022-11-24T00:53:38;35.13;;;13.68;;
27558;SDS011;15002;52.028;5.670;2022-11-24T00:56:04;28.27;;;11.07;;
27558;SDS011;15002;52.028;5.670;2022-11-24T00:58:31;29.83;;;9.68;;
27558;SDS011;15002;52.028;5.670;2022-11-24T01:01:03;20.73;;;6.60;;
27558;SDS011;15002;52.028;5.670;2022-11-24T01:03:32;22.20;;;5.22;;
27558;SDS011;15002;52.028;5.670;2022-11-24T01:06:01;16.85;;;5.20;;
27558;SDS011;15002;52.028;5.670;2022-11-24T01:08:39;25.13;;;6.72;;
27558;SDS011;15002;52.028;5.670;2022-11-24T01:11:09;17.88;;;4.68;;
27558;SDS011;15002;52.028;5.670;2022-11-24T01:13:41;18.13;;;3.30;;
27558;SDS011;15002;52.028;5.670;2022-11-24T01:16:13;20.08;;;4.10;;
27558;SDS011;15002;52.028;5.670;2022-11-24T01:18:39;16.52;;;3.22;;
27558;SDS011;15002;52.028;5.670;2022-11-24T01:21:04;19.63;;;4.03;;
27558;SDS011;15002;52.028;5.670;2022-11-24T01:23:30;22.58;;;6.05;;
27558;SDS011;15002;52.028;5.670;2022-11-24T01:25:56;19.98;;;4.32;;
27558;SDS011;15002;52.028;5.670;2022-11-24T01:28:21;19.48;;;4.32;;
27558;SDS011;15002;52.028;5.670;2022-11-24T01:30:55;16.02;;;3.97;;
27558;SDS011;15002;52.028;5.670;2022-11-24T01:33:25;21.92;;;4.30;;
27558;SDS011;15002;52.028;5.670;2022-11-24T01:35:51;23.75;;;5.65;;
27558;SDS011;15002;52.028;5.670;2022-11-24T01:38:16;18.83;;;4.63;;
27558;SDS011;15002;52.028;5.670;2022-11-24T01:40:42;22.27;;;5.32;;
27558;SDS011;15002;52.028;5.670;2022-11-24T01:43:15;19.65;;;3.75;;
27558;SDS011;15002;52.028;5.670;2022-11-24T01:45:42;22.67;;;5.25;;
27558;SDS011;15002;52.028;5.670;2022-11-24T01:48:14;25.98;;;9.38;;
27558;SDS011;15002;52.028;5.670;2022-11-24T01:50:51;34.10;;;9.85;;
27558;SDS011;15002;52.028;5.670;2022-11-24T01:53:21;24.75;;;7.47;;
27558;SDS011;15002;52.028;5.670;2022-11-24T01:55:48;24.08;;;7.30;;
27558;SDS011;15002;52.028;5.670;2022-11-24T01:58:18;34.20;;;9.02;;
27558;SDS011;15002;52.028;5.670;2022-11-24T02:00:51;19.67;;;6.80;;
27558;SDS011;15002;52.028;5.670;2022-11-24T02:03:19;26.75;;;7.28;;
27558;SDS011;15002;52.028;5.670;2022-11-24T02:05:54;27.40;;;9.73;;
27558;SDS011;15002;52.028;5.670;2022-11-24T02:08:26;26.90;;;9.48;;
27558;SDS011;15002;52.028;5.670;2022-11-24T02:11:04;32.40;;;10.67;;
27558;SDS011;15002;52.028;5.670;2022-11-24T02:13:32;31.42;;;9.88;;
27558;SDS011;15002;52.028;5.670;2022-11-24T02:16:00;21.27;;;6.65;;
27558;SDS011;15002;52.028;5.670;2022-11-24T02:18:26;17.00;;;3.60;;
27558;SDS011;15002;52.028;5.670;2022-11-24T02:20:51;18.42;;;4.43;;
27558;SDS011;15002;52.028;5.670;2022-11-24T02:23:26;19.25;;;3.40;;
27558;SDS011;15002;52.028;5.670;2022-11-24T02:29:03;12.15;;;2.90;;
27558;SDS011;15002;52.028;5.670;2022-11-24T02:31:28;14.38;;;4.32;;
27558;SDS011;15002;52.028;5.670;2022-11-24T02:33:54;19.75;;;3.85;;
27558;SDS011;15002;52.028;5.670;2022-11-24T02:36:20;19.85;;;3.10;;
27558;SDS011;15002;52.028;5.670;2022-11-24T02:38:46;17.25;;;3.72;;
27558;SDS011;15002;52.028;5.670;2022-11-24T02:41:14;20.65;;;5.65;;
27558;SDS011;15002;52.028;5.670;2022-11-24T02:43:45;18.85;;;4.53;;
27558;SDS011;15002;52.028;5.670;2022-11-24T02:46:16;24.00;;;5.63;;
27558;SDS011;15002;52.028;5.670;2022-11-24T02:48:41;28.85;;;7.80;;
27558;SDS011;15002;52.028;5.670;2022-11-24T02:51:07;34.72;;;11.23;;
27558;SDS011;15002;52.028;5.670;2022-11-24T02:53:33;40.35;;;11.68;;
27558;SDS011;15002;52.028;5.670;2022-11-24T02:55:59;43.65;;;11.63;;
27558;SDS011;15002;52.028;5.670;2022-11-24T02:58:24;33.03;;;9.57;;
27558;SDS011;15002;52.028;5.670;2022-11-24T03:00:50;34.63;;;11.93;;
27558;SDS011;15002;52.028;5.670;2022-11-24T03:03:18;25.45;;;7.75;;
27558;SDS011;15002;52.028;5.670;2022-11-24T03:05:45;31.48;;;8.63;;
27558;SDS011;15002;52.028;5.670;2022-11-24T03:08:10;22.25;;;7.47;;
27558;SDS011;15002;52.028;5.670;2022-11-24T03:10:37;24.13;;;8.48;;
27558;SDS011;15002;52.028;5.670;2022-11-24T03:13:03;28.27;;;9.65;;
27558;SDS011;15002;52.028;5.670;2022-11-24T03:15:28;22.80;;;7.85;;
27558;SDS011;15002;52.028;5.670;2022-11-24T03:17:54;22.20;;;7.10;;
27558;SDS011;15002;52.028;5.670;2022-11-24T03:20:23;17.13;;;3.55;;
27558;SDS011;15002;52.028;5.670;2022-11-24T03:22:49;16.73;;;2.88;;
27558;SDS011;15002;52.028;5.670;2022-11-24T03:25:15;10.80;;;2.17;;
27558;SDS011;15002;52.028;5.670;2022-11-24T03:27:41;11.05;;;2.20;;
27558;SDS011;15002;52.028;5.670;2022-11-24T03:30:07;9.63;;;2.50;;
27558;SDS011;15002;52.028;5.670;2022-11-24T03:32:33;17.63;;;3.42;;
27558;SDS011;15002;52.028;5.670;2022-11-24T03:34:58;14.13;;;2.47;;
27558;SDS011;15002;52.028;5.670;2022-11-24T03:37:24;20.08;;;3.10;;
27558;SDS011;15002;52.028;5.670;2022-11-24T03:39:50;13.13;;;2.83;;
27558;SDS011;15002;52.028;5.670;2022-11-24T03:42:15;16.88;;;2.80;;
27558;SDS011;15002;52.028;5.670;2022-11-24T03:44:41;12.45;;;2.40;;
27558;SDS011;15002;52.028;5.670;2022-11-24T03:47:07;13.35;;;2.78;;
27558;SDS011;15002;52.028;5.670;2022-11-24T03:49:34;13.95;;;2.17;;
27558;SDS011;15002;52.028;5.670;2022-11-24T03:52:00;16.00;;;2.80;;
27558;SDS011;15002;52.028;5.670;2022-11-24T03:54:26;15.35;;;3.75;;
27558;SDS011;15002;52.028;5.670;2022-11-24T03:56:51;18.67;;;3.42;;
27558;SDS011;15002;52.028;5.670;2022-11-24T03:59:17;14.77;;;3.65;;
27558;SDS011;15002;52.028;5.670;2022-11-24T04:01:43;14.30;;;3.25;;
27558;SDS011;15002;52.028;5.670;2022-11-24T04:04:09;16.75;;;4.25;;
27558;SDS011;15002;52.028;5.670;2022-11-24T04:06:35;25.63;;;5.70;;
27558;SDS011;15002;52.028;5.670;2022-11-24T04:09:01;23.98;;;6.00;;
27558;SDS011;15002;52.028;5.670;2022-11-24T04:11:27;21.70;;;7.10;;
27558;SDS011;15002;52.028;5.670;2022-11-24T04:14:11;29.55;;;6.50;;
27558;SDS011;15002;52.028;5.670;2022-11-24T04:16:37;24.95;;;7.00;;
27558;SDS011;15002;52.028;5.670;2022-11-24T04:19:02;30.92;;;9.70;;
27558;SDS011;15002;52.028;5.670;2022-11-24T04:21:28;24.45;;;7.88;;
27558;SDS011;15002;52.028;5.670;2022-11-24T04:23:54;35.20;;;9.30;;
27558;SDS011;15002;52.028;5.670;2022-11-24T04:26:19;38.60;;;11.00;;
27558;SDS011;15002;52.028;5.670;2022-11-24T04:28:45;26.95;;;8.90;;
27558;SDS011;15002;52.028;5.670;2022-11-24T04:31:10;32.92;;;7.53;;
27558;SDS011;15002;52.028;5.670;2022-11-24T04:33:36;27.60;;;9.48;;
27558;SDS011;15002;52.028;5.670;2022-11-24T04:36:02;34.95;;;9.27;;
27558;SDS011;15002;52.028;5.670;2022-11-24T04:38:27;34.25;;;9.70;;
27558;SDS011;15002;52.028;5.670;2022-11-24T04:40:53;35.20;;;11.23;;
27558;SDS011;15002;52.028;5.670;2022-11-24T04:43:19;34.28;;;10.95;;
27558;SDS011;15002;52.028;5.670;2022-11-24T04:45:45;21.95;;;6.60;;
27558;SDS011;15002;52.028;5.670;2022-11-24T04:48:11;25.85;;;5.70;;
27558;SDS011;15002;52.028;5.670;2022-11-24T04:50:37;27.30;;;7.00;;
27558;SDS011;15002;52.028;5.670;2022-11-24T04:53:03;21.85;;;5.53;;
27558;SDS011;15002;52.028;5.670;2022-11-24T04:55:29;27.05;;;6.50;;
27558;SDS011;15002;52.028;5.670;2022-11-24T04:57:55;16.33;;;4.10;;
27558;SDS011;15002;52.028;5.670;2022-11-24T05:00:20;26.65;;;4.57;;
27558;SDS011;15002;52.028;5.670;2022-11-24T05:02:46;17.77;;;4.40;;
27558;SDS011;15002;52.028;5.670;2022-11-24T05:05:12;14.18;;;3.05;;
27558;SDS011;15002;52.028;5.670;2022-11-24T05:07:37;17.50;;;3.03;;
27558;SDS011;15002;52.028;5.670;2022-11-24T05:10:03;11.07;;;2.20;;
27558;SDS011;15002;52.028;5.670;2022-11-24T05:12:54;16.90;;;3.38;;
27558;SDS011;15002;52.028;5.670;2022-11-24T05:15:23;13.85;;;2.30;;
27558;SDS011;15002;52.028;5.670;2022-11-24T05:17:49;11.32;;;2.58;;
27558;SDS011;15002;52.028;5.670;2022-11-24T05:20:14;11.70;;;2.72;;
27558;SDS011;15002;52.028;5.670;2022-11-24T05:22:40;7.53;;;2.50;;
27558;SDS011;15002;52.028;5.670;2022-11-24T05:25:05;14.75;;;2.10;;
27558;SDS011;15002;52.028;5.670;2022-11-24T05:27:31;8.75;;;2.45;;
27558;SDS011;15002;52.028;5.670;2022-11-24T05:29:57;10.38;;;2.47;;
27558;SDS011;15002;52.028;5.670;2022-11-24T05:32:22;15.95;;;2.80;;
27558;SDS011;15002;52.028;5.670;2022-11-24T05:34:48;11.35;;;2.55;;
27558;SDS011;15002;52.028;5.670;2022-11-24T05:37:14;10.25;;;2.20;;
27558;SDS011;15002;52.028;5.670;2022-11-24T05:39:40;11.35;;;2.45;;
27558;SDS011;15002;52.028;5.670;2022-11-24T05:42:06;12.40;;;2.88;;
27558;SDS011;15002;52.028;5.670;2022-11-24T05:44:51;12.63;;;2.58;;
27558;SDS011;15002;52.028;5.670;2022-11-24T05:47:17;13.45;;;2.47;;
27558;SDS011;15002;52.028;5.670;2022-11-24T05:49:43;10.02;;;2.80;;
27558;SDS011;15002;52.028;5.670;2022-11-24T05:52:09;10.48;;;3.05;;
27558;SDS011;15002;52.028;5.670;2022-11-24T05:54:35;10.40;;;2.55;;
27558;SDS011;15002;52.028;5.670;2022-11-24T05:57:00;12.55;;;2.95;;
27558;SDS011;15002;52.028;5.670;2022-11-24T05:59:26;8.52;;;2.92;;
27558;SDS011;15002;52.028;5.670;2022-11-24T06:01:52;14.40;;;3.15;;
27558;SDS011;15002;52.028;5.670;2022-11-24T06:04:17;11.40;;;3.15;;
27558;SDS011;15002;52.028;5.670;2022-11-24T06:06:43;10.38;;;2.92;;
27558;SDS011;15002;52.028;5.670;2022-11-24T06:09:10;12.07;;;2.97;;
27558;SDS011;15002;52.028;5.670;2022-11-24T06:11:36;5.28;;;2.50;;
27558;SDS011;15002;52.028;5.670;2022-11-24T06:14:02;7.72;;;2.80;;
27558;SDS011;15002;52.028;5.670;2022-11-24T06:16:27;7.25;;;2.33;;
27558;SDS011;15002;52.028;5.670;2022-11-24T06:18:53;7.75;;;2.20;;
27558;SDS011;15002;52.028;5.670;2022-11-24T06:21:18;6.03;;;2.13;;
27558;SDS011;15002;52.028;5.670;2022-11-24T06:23:46;5.78;;;2.40;;
27558;SDS011;15002;52.028;5.670;2022-11-24T06:26:12;6.40;;;2.03;;
27558;SDS011;15002;52.028;5.670;2022-11-24T06:28:38;7.72;;;2.00;;
27558;SDS011;15002;52.028;5.670;2022-11-24T06:31:04;7.85;;;2.55;;
27558;SDS011;15002;52.028;5.670;2022-11-24T06:33:30;8.98;;;2.47;;
27558;SDS011;15002;52.028;5.670;2022-11-24T06:35:58;9.20;;;2.53;;
27558;SDS011;15002;52.028;5.670;2022-11-24T06:38:25;8.70;;;2.78;;
27558;SDS011;15002;52.028;5.670;2022-11-24T06:40:57;12.85;;;3.20;;
27558;SDS011;15002;52.028;5.670;2022-11-24T06:43:26;8.23;;;2.78;;
27558;SDS011;15002;52.028;5.670;2022-11-24T06:45:54;7.63;;;3.30;;
27558;SDS011;15002;52.028;5.670;2022-11-24T06:48:20;11.82;;;3.15;;
27558;SDS011;15002;52.028;5.670;2022-11-24T06:50:46;8.45;;;4.05;;
27558;SDS011;15002;52.028;5.670;2022-11-24T06:53:11;10.80;;;4.38;;
27558;SDS011;15002;52.028;5.670;2022-11-24T06:55:37;9.10;;;3.70;;
27558;SDS011;15002;52.028;5.670;2022-11-24T06:58:04;12.73;;;4.18;;
27558;SDS011;15002;52.028;5.670;2022-11-24T07:00:30;9.48;;;5.00;;
27558;SDS011;15002;52.028;5.670;2022-11-24T07:02:57;11.07;;;4.43;;
27558;SDS011;15002;52.028;5.670;2022-11-24T07:05:23;10.13;;;4.95;;
27558;SDS011;15002;52.028;5.670;2022-11-24T07:07:48;14.38;;;5.32;;
27558;SDS011;15002;52.028;5.670;2022-11-24T07:10:14;9.10;;;4.95;;
27558;SDS011;15002;52.028;5.670;2022-11-24T07:12:40;10.68;;;5.85;;
27558;SDS011;15002;52.028;5.670;2022-11-24T07:15:06;13.75;;;6.03;;
27558;SDS011;15002;52.028;5.670;2022-11-24T07:17:36;14.05;;;6.13;;
27558;SDS011;15002;52.028;5.670;2022-11-24T07:20:04;14.65;;;5.93;;
27558;SDS011;15002;52.028;5.670;2022-11-24T07:22:31;13.65;;;6.03;;
27558;SDS011;15002;52.028;5.670;2022-11-24T07:24:57;13.00;;;6.78;;
27558;SDS011;15002;52.028;5.670;2022-11-24T07:27:22;14.65;;;6.72;;
27558;SDS011;15002;52.028;5.670;2022-11-24T07:29:48;17.33;;;7.30;;
27558;SDS011;15002;52.028;5.670;2022-11-24T07:32:14;14.27;;;6.20;;
27558;SDS011;15002;52.028;5.670;2022-11-24T07:34:40;11.88;;;6.43;;
27558;SDS011;15002;52.028;5.670;2022-11-24T07:37:05;12.30;;;6.38;;
27558;SDS011;15002;52.028;5.670;2022-11-24T07:39:31;12.48;;;6.88;;
27558;SDS011;15002;52.028;5.670;2022-11-24T07:41:57;12.25;;;6.93;;
27558;SDS011;15002;52.028;5.670;2022-11-24T07:44:24;12.68;;;7.30;;
27558;SDS011;15002;52.028;5.670;2022-11-24T07:46:50;12.27;;;7.40;;
27558;SDS011;15002;52.028;5.670;2022-11-24T07:49:16;15.60;;;7.93;;
27558;SDS011;15002;52.028;5.670;2022-11-24T07:51:42;12.90;;;8.00;;
27558;SDS011;15002;52.028;5.670;2022-11-24T07:54:08;14.80;;;8.13;;
27558;SDS011;15002;52.028;5.670;2022-11-24T07:56:34;15.65;;;7.45;;
27558;SDS011;15002;52.028;5.670;2022-11-24T07:59:00;15.65;;;7.43;;
27558;SDS011;15002;52.028;5.670;2022-11-24T08:01:25;14.43;;;7.47;;
27558;SDS011;15002;52.028;5.670;2022-11-24T08:03:51;14.90;;;7.57;;
27558;SDS011;15002;52.028;5.670;2022-11-24T08:06:17;10.68;;;7.32;;
27558;SDS011;15002;52.028;5.670;2022-11-24T08:08:43;12.55;;;7.53;;
27558;SDS011;15002;52.028;5.670;2022-11-24T08:11:10;16.75;;;8.15;;
27558;SDS011;15002;52.028;5.670;2022-11-24T08:13:38;13.65;;;7.18;;
27558;SDS011;15002;52.028;5.670;2022-11-24T08:16:05;9.73;;;6.47;;
27558;SDS011;15002;52.028;5.670;2022-11-24T08:18:32;13.27;;;6.85;;
27558;SDS011;15002;52.028;5.670;2022-11-24T08:20:59;11.75;;;6.85;;
27558;SDS011;15002;52.028;5.670;2022-11-24T08:23:24;10.05;;;5.85;;
27558;SDS011;15002;52.028;5.670;2022-11-24T08:25:50;10.68;;;6.15;;
27558;SDS011;15002;52.028;5.670;2022-11-24T08:28:16;14.90;;;6.18;;
27558;SDS011;15002;52.028;5.670;2022-11-24T08:30:42;13.05;;;6.43;;
27558;SDS011;15002;52.028;5.670;2022-11-24T08:33:07;13.32;;;5.68;;
27558;SDS011;15002;52.028;5.670;2022-11-24T08:35:36;14.82;;;5.60;;
27558;SDS011;15002;52.028;5.670;2022-11-24T08:38:02;10.68;;;5.88;;
27558;SDS011;15002;52.028;5.670;2022-11-24T08:40:29;14.13;;;5.78;;
27558;SDS011;15002;52.028;5.670;2022-11-24T08:42:58;12.38;;;5.10;;
27558;SDS011;15002;52.028;5.670;2022-11-24T08:45:24;9.45;;;4.82;;
27558;SDS011;15002;52.028;5.670;2022-11-24T08:47:54;10.48;;;4.25;;
27558;SDS011;15002;52.028;5.670;2022-11-24T08:50:21;11.95;;;4.97;;
27558;SDS011;15002;52.028;5.670;2022-11-24T08:52:49;9.45;;;4.50;;
27558;SDS011;15002;52.028;5.670;2022-11-24T08:55:16;11.35;;;5.10;;
27558;SDS011;15002;52.028;5.670;2022-11-24T08:57:41;12.85;;;4.97;;
27558;SDS011;15002;52.028;5.670;2022-11-24T09:00:08;12.00;;;5.43;;
27558;SDS011;15002;52.028;5.670;2022-11-24T09:02:34;19.92;;;5.15;;
27558;SDS011;15002;52.028;5.670;2022-11-24T09:04:59;13.25;;;5.00;;
27558;SDS011;15002;52.028;5.670;2022-11-24T09:07:25;9.68;;;4.50;;
27558;SDS011;15002;52.028;5.670;2022-11-24T09:09:51;13.35;;;4.80;;
27558;SDS011;15002;52.028;5.670;2022-11-24T09:12:16;9.85;;;5.15;;
27558;SDS011;15002;52.028;5.670;2022-11-24T09:14:42;15.20;;;4.40;;
27558;SDS011;15002;52.028;5.670;2022-11-24T09:17:08;13.65;;;4.38;;
27558;SDS011;15002;52.028;5.670;2022-11-24T09:19:33;10.88;;;4.47;;
27558;SDS011;15002;52.028;5.670;2022-11-24T09:21:59;9.55;;;4.70;;
27558;SDS011;15002;52.028;5.670;2022-11-24T09:24:25;13.05;;;4.40;;
27558;SDS011;15002;52.028;5.670;2022-11-24T09:26:51;12.15;;;4.30;;
27558;SDS011;15002;52.028;5.670;2022-11-24T09:29:17;10.30;;;4.32;;
27558;SDS011;15002;52.028;5.670;2022-11-24T09:31:43;9.65;;;4.70;;
27558;SDS011;15002;52.028;5.670;2022-11-24T09:34:10;10.98;;;4.40;;
27558;SDS011;15002;52.028;5.670;2022-11-24T09:36:37;12.48;;;4.20;;
27558;SDS011;15002;52.028;5.670;2022-11-24T09:39:03;14.23;;;4.63;;
27558;SDS011;15002;52.028;5.670;2022-11-24T09:41:31;10.02;;;4.20;;
27558;SDS011;15002;52.028;5.670;2022-11-24T09:49:58;12.85;;;3.95;;
27558;SDS011;15002;52.028;5.670;2022-11-24T09:55:43;15.52;;;4.30;;
27558;SDS011;15002;52.028;5.670;2022-11-24T09:58:08;11.80;;;3.28;;
27558;SDS011;15002;52.028;5.670;2022-11-24T10:00:54;14.45;;;3.78;;
27558;SDS011;15002;52.028;5.670;2022-11-24T10:03:25;8.75;;;3.55;;
27558;SDS011;15002;52.028;5.670;2022-11-24T10:06:04;10.32;;;3.13;;
27558;SDS011;15002;52.028;5.670;2022-11-24T10:08:47;9.45;;;3.35;;
27558;SDS011;15002;52.028;5.670;2022-11-24T10:11:33;9.82;;;3.30;;
27558;SDS011;15002;52.028;5.670;2022-11-24T10:27:44;13.20;;;3.13;;
27558;SDS011;15002;52.028;5.670;2022-11-24T10:30:17;9.75;;;3.22;;
27558;SDS011;15002;52.028;5.670;2022-11-24T10:32:48;11.02;;;3.05;;
27558;SDS011;15002;52.028;5.670;2022-11-24T10:35:27;8.70;;;2.47;;
27558;SDS011;15002;52.028;5.670;2022-11-24T10:38:25;10.32;;;2.78;;
27558;SDS011;15002;52.028;5.670;2022-11-24T10:40:47;12.00;;;2.70;;
27558;SDS011;15002;52.028;5.670;2022-11-24T10:43:16;10.35;;;2.78;;
27558;SDS011;15002;52.028;5.670;2022-11-24T10:45:41;15.23;;;3.33;;
27558;SDS011;15002;52.028;5.670;2022-11-24T10:48:18;11.80;;;2.70;;
27558;SDS011;15002;52.028;5.670;2022-11-24T10:50:47;14.20;;;3.10;;
27558;SDS011;15002;52.028;5.670;2022-11-24T10:53:16;11.35;;;2.42;;
27558;SDS011;15002;52.028;5.670;2022-11-24T10:55:56;9.77;;;2.35;;
27558;SDS011;15002;52.028;5.670;2022-11-24T10:58:27;7.53;;;2.42;;
27558;SDS011;15002;52.028;5.670;2022-11-24T11:00:57;9.18;;;2.15;;
27558;SDS011;15002;52.028;5.670;2022-11-24T11:03:26;13.93;;;3.28;;
27558;SDS011;15002;52.028;5.670;2022-11-24T11:06:11;12.20;;;2.75;;
27558;SDS011;15002;52.028;5.670;2022-11-24T11:08:38;9.63;;;2.47;;
27558;SDS011;15002;52.028;5.670;2022-11-24T11:11:17;11.50;;;2.88;;
27558;SDS011;15002;52.028;5.670;2022-11-24T11:13:48;16.13;;;3.03;;
27558;SDS011;15002;52.028;5.670;2022-11-24T11:16:39;19.65;;;3.33;;
27558;SDS011;15002;52.028;5.670;2022-11-24T11:22:02;13.15;;;3.08;;
27558;SDS011;15002;52.028;5.670;2022-11-24T11:24:37;13.15;;;3.22;;
27558;SDS011;15002;52.028;5.670;2022-11-24T11:27:15;14.68;;;2.97;;
27558;SDS011;15002;52.028;5.670;2022-11-24T11:29:45;12.00;;;3.05;;
27558;SDS011;15002;52.028;5.670;2022-11-24T11:34:42;12.17;;;2.40;;
27558;SDS011;15002;52.028;5.670;2022-11-24T11:37:08;15.48;;;2.78;;
27558;SDS011;15002;52.028;5.670;2022-11-24T11:39:40;11.30;;;2.78;;
27558;SDS011;15002;52.028;5.670;2022-11-24T11:44:47;18.02;;;2.72;;
27558;SDS011;15002;52.028;5.670;2022-11-24T11:47:21;20.48;;;2.90;;
27558;SDS011;15002;52.028;5.670;2022-11-24T11:49:52;15.32;;;3.30;;
27558;SDS011;15002;52.028;5.670;2022-11-24T12:00:17;16.20;;;3.45;;
27558;SDS011;15002;52.028;5.670;2022-11-24T12:02:52;12.65;;;3.65;;
27558;SDS011;15002;52.028;5.670;2022-11-24T12:05:33;15.60;;;3.20;;
27558;SDS011;15002;52.028;5.670;2022-11-24T12:08:52;14.45;;;4.15;;
27558;SDS011;15002;52.028;5.670;2022-11-24T12:11:14;14.82;;;3.28;;
27558;SDS011;15002;52.028;5.670;2022-11-24T12:16:48;15.68;;;3.00;;
27558;SDS011;15002;52.028;5.670;2022-11-24T12:22:12;16.50;;;2.80;;
27558;SDS011;15002;52.028;5.670;2022-11-24T12:24:56;16.77;;;3.63;;
27558;SDS011;15002;52.028;5.670;2022-11-24T12:30:16;13.70;;;3.40;;
27558;SDS011;15002;52.028;5.670;2022-11-24T12:35:47;13.60;;;2.83;;
27558;SDS011;15002;52.028;5.670;2022-11-24T12:41:14;15.95;;;3.33;;
27558;SDS011;15002;52.028;5.670;2022-11-24T12:43:49;14.32;;;3.40;;
27558;SDS011;15002;52.028;5.670;2022-11-24T12:51:53;16.30;;;3.75;;
27558;SDS011;15002;52.028;5.670;2022-11-24T12:54:24;17.58;;;2.72;;
27558;SDS011;15002;52.028;5.670;2022-11-24T12:57:11;11.40;;;2.53;;
27558;SDS011;15002;52.028;5.670;2022-11-24T13:00:05;12.50;;;2.45;;
27558;SDS011;15002;52.028;5.670;2022-11-24T13:07:53;18.73;;;3.75;;
27558;SDS011;15002;52.028;5.670;2022-11-24T13:12:53;15.73;;;4.38;;
27558;SDS011;15002;52.028;5.670;2022-11-24T13:15:21;15.02;;;3.45;;
27558;SDS011;15002;52.028;5.670;2022-11-24T13:17:47;20.27;;;2.95;;
27558;SDS011;15002;52.028;5.670;2022-11-24T13:22:48;20.73;;;3.42;;
27558;SDS011;15002;52.028;5.670;2022-11-24T13:25:20;20.08;;;3.83;;
27558;SDS011;15002;52.028;5.670;2022-11-24T13:27:49;16.45;;;3.00;;
27558;SDS011;15002;52.028;5.670;2022-11-24T13:35:26;15.95;;;3.90;;
27558;SDS011;15002;52.028;5.670;2022-11-24T13:37:52;18.50;;;4.60;;
27558;SDS011;15002;52.028;5.670;2022-11-24T13:45:46;21.38;;;3.20;;
27558;SDS011;15002;52.028;5.670;2022-11-24T13:55:57;14.05;;;3.38;;
27558;SDS011;15002;52.028;5.670;2022-11-24T13:58:29;15.70;;;4.88;;
27558;SDS011;15002;52.028;5.670;2022-11-24T14:01:06;25.15;;;6.05;;
27558;SDS011;15002;52.028;5.670;2022-11-24T14:03:37;22.75;;;6.70;;
27558;SDS011;15002;52.028;5.670;2022-11-24T14:06:11;20.67;;;4.00;;
27558;SDS011;15002;52.028;5.670;2022-11-24T14:08:41;16.45;;;4.53;;
27558;SDS011;15002;52.028;5.670;2022-11-24T14:11:11;20.10;;;5.07;;
27558;SDS011;15002;52.028;5.670;2022-11-24T14:13:39;17.67;;;4.38;;
27558;SDS011;15002;52.028;5.670;2022-11-24T14:16:11;17.42;;;4.00;;
27558;SDS011;15002;52.028;5.670;2022-11-24T14:18:40;19.95;;;5.90;;
27558;SDS011;15002;52.028;5.670;2022-11-24T14:21:24;21.98;;;6.07;;
27558;SDS011;15002;52.028;5.670;2022-11-24T14:24:18;20.05;;;4.40;;
27558;SDS011;15002;52.028;5.670;2022-11-24T14:26:50;15.23;;;3.70;;
27558;SDS011;15002;52.028;5.670;2022-11-24T14:29:17;14.20;;;3.05;;
27558;SDS011;15002;52.028;5.670;2022-11-24T14:32:18;18.42;;;3.08;;
27558;SDS011;15002;52.028;5.670;2022-11-24T14:34:40;18.65;;;4.18;;
27558;SDS011;15002;52.028;5.670;2022-11-24T14:37:07;14.27;;;4.03;;
27558;SDS011;15002;52.028;5.670;2022-11-24T14:39:41;23.33;;;6.25;;
27558;SDS011;15002;52.028;5.670;2022-11-24T14:42:25;16.88;;;4.90;;
27558;SDS011;15002;52.028;5.670;2022-11-24T14:44:58;15.65;;;3.20;;
27558;SDS011;15002;52.028;5.670;2022-11-24T14:49:53;16.00;;;2.80;;
27558;SDS011;15002;52.028;5.670;2022-11-24T14:52:20;19.45;;;2.58;;
27558;SDS011;15002;52.028;5.670;2022-11-24T14:54:49;17.10;;;2.85;;
27558;SDS011;15002;52.028;5.670;2022-11-24T14:57:24;20.67;;;2.80;;
27558;SDS011;15002;52.028;5.670;2022-11-24T15:02:45;14.02;;;2.53;;
27558;SDS011;15002;52.028;5.670;2022-11-24T15:05:18;14.52;;;2.83;;
27558;SDS011;15002;52.028;5.670;2022-11-24T15:07:49;13.52;;;2.95;;
27558;SDS011;15002;52.028;5.670;2022-11-24T15:10:34;15.40;;;3.50;;
27558;SDS011;15002;52.028;5.670;2022-11-24T15:13:02;12.52;;;2.58;;
27558;SDS011;15002;52.028;5.670;2022-11-24T15:15:36;11.23;;;3.05;;
27558;SDS011;15002;52.028;5.670;2022-11-24T15:18:03;17.90;;;4.15;;
27558;SDS011;15002;52.028;5.670;2022-11-24T15:20:43;20.42;;;3.78;;
27558;SDS011;15002;52.028;5.670;2022-11-24T15:23:10;18.42;;;3.08;;
27558;SDS011;15002;52.028;5.670;2022-11-24T15:25:57;14.50;;;2.92;;
27558;SDS011;15002;52.028;5.670;2022-11-24T15:28:44;9.32;;;3.00;;
27558;SDS011;15002;52.028;5.670;2022-11-24T15:31:11;17.70;;;3.05;;
27558;SDS011;15002;52.028;5.670;2022-11-24T15:33:38;14.35;;;2.95;;
27558;SDS011;15002;52.028;5.670;2022-11-24T15:36:10;12.05;;;3.10;;
27558;SDS011;15002;52.028;5.670;2022-11-24T15:38:38;16.00;;;2.33;;
27558;SDS011;15002;52.028;5.670;2022-11-24T15:41:04;17.92;;;3.53;;
27558;SDS011;15002;52.028;5.670;2022-11-24T15:43:45;11.90;;;3.38;;
27558;SDS011;15002;52.028;5.670;2022-11-24T15:46:11;21.58;;;3.25;;
27558;SDS011;15002;52.028;5.670;2022-11-24T15:48:37;16.00;;;2.97;;
27558;SDS011;15002;52.028;5.670;2022-11-24T15:51:04;14.10;;;3.72;;
27558;SDS011;15002;52.028;5.670;2022-11-24T15:53:33;14.25;;;3.22;;
27558;SDS011;15002;52.028;5.670;2022-11-24T15:55:59;12.07;;;2.75;;
27558;SDS011;15002;52.028;5.670;2022-11-24T15:58:26;19.90;;;4.03;;
27558;SDS011;15002;52.028;5.670;2022-11-24T16:00:52;16.45;;;3.55;;
27558;SDS011;15002;52.028;5.670;2022-11-24T16:03:18;22.33;;;4.00;;
27558;SDS011;15002;52.028;5.670;2022-11-24T16:05:44;15.18;;;3.65;;
27558;SDS011;15002;52.028;5.670;2022-11-24T16:08:11;14.43;;;2.70;;
27558;SDS011;15002;52.028;5.670;2022-11-24T16:10:38;14.75;;;3.17;;
27558;SDS011;15002;52.028;5.670;2022-11-24T16:13:04;13.80;;;2.63;;
27558;SDS011;15002;52.028;5.670;2022-11-24T16:15:30;14.95;;;2.58;;
27558;SDS011;15002;52.028;5.670;2022-11-24T16:17:55;16.60;;;4.13;;
27558;SDS011;15002;52.028;5.670;2022-11-24T16:20:21;10.57;;;2.70;;
27558;SDS011;15002;52.028;5.670;2022-11-24T16:22:47;18.27;;;2.85;;
27558;SDS011;15002;52.028;5.670;2022-11-24T16:25:12;19.42;;;3.55;;